createdAt,value
2022-08-12T00:03:20.765Z,101839.81
2022-08-12T00:06:42.591Z,101853.78
2022-08-12T00:10:02.963Z,101843.53
2022-08-12T00:13:24.043Z,101843.53
2022-08-12T00:16:45.899Z,101843.59
2022-08-12T00:20:07.689Z,101845.06
2022-08-12T00:23:28.094Z,101848.44
2022-08-12T00:26:48.321Z,101842.69
2022-08-12T00:30:09.354Z,101842.41
2022-08-12T00:33:38.613Z,101844.06
2022-08-12T00:37:13.439Z,101839.09
2022-08-12T00:40:34.608Z,101843.00
2022-08-12T00:43:38.330Z,101840.00
2022-08-12T00:46:50.635Z,101839.75
2022-08-12T00:49:55.280Z,101845.22
2022-08-12T00:53:01.394Z,101846.38
2022-08-12T00:56:05.932Z,101840.81
2022-08-12T00:59:10.152Z,101845.22
2022-08-12T01:02:17.399Z,101838.25
2022-08-12T01:05:39.896Z,101835.19
2022-08-12T01:09:01.458Z,101841.03
2022-08-12T01:12:06.525Z,101836.56
2022-08-12T01:15:12.980Z,101831.00
2022-08-12T01:18:16.785Z,101835.19
2022-08-12T01:21:42.633Z,101826.28
2022-08-12T01:24:56.903Z,101834.06
2022-08-12T01:28:01.979Z,101840.22
2022-08-12T01:31:06.870Z,101837.44
2022-08-12T01:34:36.030Z,101838.09
2022-08-12T01:37:38.227Z,101840.91
2022-08-12T01:40:47.981Z,101833.38
2022-08-12T01:43:53.329Z,101842.34
2022-08-12T01:47:06.727Z,101837.63
2022-08-12T01:50:22.112Z,101825.69
2022-08-12T01:53:27.487Z,101838.22
2022-08-12T01:56:39.861Z,101831.88
2022-08-12T01:59:47.392Z,101835.25
2022-08-12T02:02:58.858Z,101832.50
2022-08-12T02:06:28.579Z,101837.56
2022-08-12T02:10:05.877Z,101840.59
2022-08-12T02:13:42.070Z,101832.28
2022-08-12T02:16:55.265Z,101832.34
2022-08-12T02:20:11.110Z,101834.03
2022-08-12T02:23:15.390Z,101821.84
2022-08-12T02:26:19.374Z,101821.34
2022-08-12T02:29:24.041Z,101828.00
2022-08-12T02:32:27.579Z,101820.28
2022-08-12T02:35:32.865Z,101833.63
2022-08-12T02:38:37.148Z,101830.31
2022-08-12T02:41:44.880Z,101833.38
2022-08-12T02:44:54.050Z,101830.31
2022-08-12T02:48:06.466Z,101829.78
2022-08-12T02:51:13.018Z,101832.84
2022-08-12T02:54:15.843Z,101819.25
2022-08-12T02:57:20.846Z,101827.88
2022-08-12T03:00:26.850Z,101828.13
2022-08-12T03:03:32.950Z,101825.03
2022-08-12T03:06:44.668Z,101833.94
2022-08-12T03:10:04.218Z,101826.47
2022-08-12T03:13:09.517Z,101832.28
2022-08-12T03:16:14.641Z,101833.97
2022-08-12T03:19:21.293Z,101833.97
2022-08-12T03:22:25.061Z,101836.22
2022-08-12T03:25:27.892Z,101837.31
2022-08-12T03:28:50.535Z,101833.44
2022-08-12T03:32:00.887Z,101838.72
2022-08-12T03:35:07.886Z,101839.53
2022-08-12T03:38:16.116Z,101841.50
2022-08-12T03:41:35.681Z,101843.97
2022-08-12T03:44:59.315Z,101832.34
2022-08-12T03:48:25.854Z,101836.78
2022-08-12T03:51:46.164Z,101845.66
2022-08-12T03:55:06.806Z,101851.19
2022-08-12T03:58:28.121Z,101850.63
2022-08-12T04:01:31.817Z,101847.03
2022-08-12T04:04:47.256Z,101843.97
2022-08-12T04:07:57.856Z,101845.34
2022-08-12T04:11:18.605Z,101847.31
2022-08-12T04:14:22.933Z,101846.47
2022-08-12T04:17:28.329Z,101857.28
2022-08-12T04:20:33.318Z,101844.00
2022-08-12T04:23:38.319Z,101850.06
2022-08-12T04:26:40.952Z,101842.59
2022-08-12T04:30:29.242Z,101847.31
2022-08-12T04:33:10.101Z,101857.03
2022-08-12T04:36:14.359Z,101857.56
2022-08-12T04:39:18.728Z,101861.19
2022-08-12T04:42:21.832Z,101861.19
2022-08-12T04:45:24.921Z,101851.91
2022-08-12T04:48:27.706Z,101849.50
2022-08-12T04:51:33.224Z,101857.28
2022-08-12T04:54:36.673Z,101844.13
2022-08-12T04:57:39.677Z,101851.75
2022-08-12T05:00:42.485Z,101847.94
2022-08-12T05:03:46.275Z,101848.22
2022-08-12T05:06:51.407Z,101850.88
2022-08-12T05:09:59.829Z,101855.09
2022-08-12T05:13:18.868Z,101845.59
2022-08-12T05:16:29.973Z,101838.03
2022-08-12T05:19:35.694Z,101849.13
2022-08-12T05:22:41.491Z,101841.13
2022-08-12T05:25:46.547Z,101849.81
2022-08-12T05:28:49.981Z,101860.50
2022-08-12T05:31:57.056Z,101855.72
2022-08-12T05:34:59.679Z,101860.22
2022-08-12T05:38:17.831Z,101852.19
2022-08-12T05:41:20.839Z,101857.34
2022-08-12T05:44:23.807Z,101849.38
2022-08-12T05:47:48.725Z,101850.53
2022-08-12T05:50:52.705Z,101855.81
2022-08-12T05:53:58.563Z,101849.88
2022-08-12T05:57:02.349Z,101854.34
2022-08-12T06:00:07.166Z,101861.94
2022-08-12T06:03:10.067Z,101861.09
2022-08-12T06:06:13.116Z,101869.13
2022-08-12T06:09:17.156Z,101866.19
2022-08-12T06:12:23.603Z,101879.09
2022-08-12T06:15:26.605Z,101876.09
2022-08-12T06:18:31.068Z,101879.13
2022-08-12T06:21:34.866Z,101884.88
2022-08-12T06:24:38.885Z,101864.31
2022-08-12T06:28:06.202Z,101869.25
2022-08-12T06:31:25.436Z,101877.38
2022-08-12T06:35:23.977Z,101873.59
2022-08-12T06:37:58.884Z,101872.41
2022-08-12T06:41:21.140Z,101869.31
2022-08-12T06:44:23.814Z,101867.84
2022-08-12T06:47:26.648Z,101870.13
2022-08-12T06:50:31.035Z,101878.53
2022-08-12T06:53:37.376Z,101875.31
2022-08-12T07:00:05.124Z,101871.66
2022-08-12T07:03:22.710Z,101863.97
2022-08-12T07:06:26.838Z,101871.38
2022-08-12T07:10:01.422Z,101863.41
2022-08-12T07:12:55.886Z,101850.59
2022-08-12T07:15:58.698Z,101860.31
2022-08-12T07:19:02.038Z,101857.34
2022-08-12T07:22:06.492Z,101858.09
2022-08-12T07:25:27.895Z,101856.81
2022-08-12T07:28:35.373Z,101861.22
2022-08-12T07:31:38.890Z,101859.22
2022-08-12T07:34:43.222Z,101864.13
2022-08-12T07:37:49.545Z,101861.28
2022-08-12T07:40:54.633Z,101864.72
2022-08-12T07:44:04.643Z,101861.94
2022-08-12T07:47:08.334Z,101862.03
2022-08-12T07:50:23.431Z,101864.78
2022-08-12T07:53:26.527Z,101861.31
2022-08-12T07:56:31.223Z,101863.94
2022-08-12T07:59:35.774Z,101853.03
2022-08-12T08:02:38.876Z,101855.16
2022-08-12T08:05:46.163Z,101851.38
2022-08-12T08:08:48.930Z,101854.22
2022-08-12T08:12:18.577Z,101859.41
2022-08-12T08:15:51.123Z,101863.06
2022-08-12T08:18:50.252Z,101863.00
2022-08-12T08:21:55.053Z,101861.53
2022-08-12T08:24:58.732Z,101851.94
2022-08-12T08:28:03.242Z,101850.72
2022-08-12T08:31:07.435Z,101854.03
2022-08-12T08:34:27.716Z,101848.81
2022-08-12T08:37:37.202Z,101841.78
2022-08-12T08:41:00.093Z,101841.34
2022-08-12T08:44:03.225Z,101846.16
2022-08-12T08:47:07.659Z,101846.09
2022-08-12T08:50:10.979Z,101855.25
2022-08-12T08:53:13.811Z,101850.81
2022-08-12T08:56:16.537Z,101853.81
2022-08-12T09:05:11.707Z,101835.50
2022-08-12T09:08:09.019Z,101840.78
2022-08-12T09:12:07.243Z,101840.34
2022-08-12T09:14:56.118Z,101839.97
2022-08-12T09:18:26.661Z,101833.28
2022-08-12T09:21:54.613Z,101843.56
2022-08-12T09:25:01.352Z,101839.88
2022-08-12T09:28:10.699Z,101844.19
2022-08-12T09:32:06.748Z,101836.75
2022-08-12T09:34:41.830Z,101833.16
2022-08-12T09:37:58.120Z,101822.59
2022-08-12T09:42:09.028Z,101836.34
2022-08-12T09:44:45.227Z,101818.63
2022-08-12T09:47:59.351Z,101820.50
2022-08-12T09:51:02.978Z,101820.56
2022-08-12T09:54:30.957Z,101817.63
2022-08-12T09:58:50.927Z,101815.59
2022-08-12T10:00:54.878Z,101814.38
2022-08-12T10:04:04.376Z,101803.44
2022-08-12T10:07:23.039Z,101800.31
2022-08-12T10:10:30.321Z,101789.31
2022-08-12T10:13:44.880Z,101776.84
2022-08-12T10:16:47.880Z,101780.34
2022-08-12T10:19:53.097Z,101774.88
2022-08-12T10:23:00.126Z,101781.31
2022-08-12T10:26:36.960Z,101779.47
2022-08-12T10:30:38.461Z,101767.25
2022-08-12T10:33:18.053Z,101770.84
2022-08-12T10:36:39.919Z,101765.09
2022-08-12T10:40:01.575Z,101759.03
2022-08-12T10:43:24.751Z,101759.13
2022-08-12T10:46:31.388Z,101748.13
2022-08-12T10:50:03.520Z,101747.75
2022-08-12T10:53:00.288Z,101743.25
2022-08-12T10:56:03.065Z,101750.63
2022-08-12T10:59:10.928Z,101737.53
2022-08-12T11:04:27.267Z,101736.72
2022-08-12T11:07:08.364Z,101745.97
2022-08-12T11:09:02.405Z,101742.69
2022-08-12T11:12:55.254Z,101732.44
2022-08-12T11:16:19.635Z,101731.28
2022-08-12T11:19:02.600Z,101730.09
2022-08-12T11:22:06.150Z,101723.66
2022-08-12T11:25:11.508Z,101728.53
2022-08-12T11:28:15.897Z,101740.28
2022-08-12T11:31:18.851Z,101730.94
2022-08-12T11:34:53.025Z,101722.78
2022-08-12T11:37:59.013Z,101713.03
2022-08-12T11:41:04.083Z,101728.16
2022-08-12T11:44:31.978Z,101711.41
2022-08-12T11:47:29.810Z,101724.66
2022-08-12T11:50:35.177Z,101708.84
2022-08-12T11:53:58.341Z,101703.38
2022-08-12T11:57:52.468Z,101700.56
2022-08-12T12:03:49.242Z,101713.78
2022-08-12T12:06:53.843Z,101704.34
2022-08-12T12:09:56.975Z,101699.34
2022-08-12T12:12:59.812Z,101712.41
2022-08-12T12:16:02.658Z,101696.97
2022-08-12T12:19:10.194Z,101690.22
2022-08-12T12:22:15.700Z,101685.81
2022-08-12T12:25:19.708Z,101691.16
2022-08-12T12:28:37.035Z,101690.50
2022-08-12T12:32:10.078Z,101687.53
2022-08-12T12:35:14.271Z,101680.03
2022-08-12T12:38:28.086Z,101672.00
2022-08-12T12:42:55.549Z,101677.63
2022-08-12T12:44:53.923Z,101668.53
2022-08-12T12:47:58.509Z,101666.97
2022-08-12T12:51:48.264Z,101666.25
2022-08-12T12:54:52.673Z,101669.59
2022-08-12T12:57:59.985Z,101667.38
2022-08-12T13:01:04.499Z,101676.53
2022-08-12T13:04:12.099Z,101660.00
2022-08-12T13:07:16.235Z,101680.56
2022-08-12T13:10:23.971Z,101673.97
2022-08-12T13:14:10.013Z,101659.50
2022-08-12T13:17:02.709Z,101664.13
2022-08-12T13:20:07.833Z,101662.63
2022-08-12T13:23:37.302Z,101658.81
2022-08-12T13:26:35.211Z,101660.00
2022-08-12T13:29:40.189Z,101656.09
2022-08-12T13:32:57.088Z,101665.69
2022-08-12T13:36:07.135Z,101658.22
2022-08-12T13:39:12.870Z,101653.72
2022-08-12T13:42:22.763Z,101654.50
2022-08-12T13:45:29.227Z,101645.84
2022-08-12T13:48:32.013Z,101643.06
2022-08-12T13:51:41.218Z,101635.00
2022-08-12T13:54:44.229Z,101631.63
2022-08-12T13:58:01.724Z,101643.22
2022-08-12T14:01:06.110Z,101620.50
2022-08-12T14:04:11.900Z,101630.34
2022-08-12T14:07:14.873Z,101634.78
2022-08-12T14:10:39.165Z,101640.94
2022-08-12T14:14:03.305Z,101633.28
2022-08-12T14:17:14.370Z,101624.97
2022-08-12T14:20:23.286Z,101628.69
2022-08-12T14:24:04.529Z,101629.34
2022-08-12T14:26:55.049Z,101631.94
2022-08-12T14:30:15.160Z,101627.78
2022-08-12T14:33:20.273Z,101631.56
2022-08-12T14:36:25.451Z,101616.81
2022-08-12T14:39:28.956Z,101627.34
2022-08-12T14:42:33.320Z,101623.91
2022-08-12T14:45:49.054Z,101613.63
2022-08-12T14:48:53.821Z,101618.22
2022-08-12T14:52:44.211Z,101612.81
2022-08-12T14:59:20.281Z,101617.59
2022-08-12T15:02:25.874Z,101609.09
2022-08-12T15:06:04.931Z,101605.16
2022-08-12T15:08:52.454Z,101599.69
2022-08-12T15:12:03.571Z,101595.69
2022-08-12T15:15:08.847Z,101585.19
2022-08-12T15:18:21.124Z,101597.78
2022-08-12T15:21:25.350Z,101592.75
2022-08-12T15:24:48.777Z,101595.91
2022-08-12T15:28:03.936Z,101582.25
2022-08-12T15:31:21.698Z,101580.28
2022-08-12T15:34:33.257Z,101581.53
2022-08-12T15:38:11.186Z,101575.50
2022-08-12T15:41:00.703Z,101575.66
2022-08-12T15:44:36.856Z,101564.38
2022-08-12T15:47:27.052Z,101565.44
2022-08-12T15:50:52.844Z,101571.75
2022-08-12T15:54:33.544Z,101574.81
2022-08-12T15:57:43.136Z,101566.03
2022-08-12T16:00:53.378Z,101565.75
2022-08-12T16:04:00.456Z,101560.38
2022-08-12T16:07:08.857Z,101561.72
2022-08-12T16:10:11.953Z,101561.25
2022-08-12T16:13:32.221Z,101561.19
2022-08-12T16:16:37.211Z,101565.69
2022-08-12T16:20:05.318Z,101565.06
2022-08-12T16:23:35.739Z,101561.19
2022-08-12T16:26:36.721Z,101562.75
2022-08-12T16:29:52.460Z,101550.31
2022-08-12T16:32:57.129Z,101554.81
2022-08-12T16:36:00.070Z,101558.31
2022-08-12T16:39:05.980Z,101548.03
2022-08-12T16:42:08.757Z,101544.56
2022-08-12T16:45:14.062Z,101540.03
2022-08-12T16:48:34.696Z,101545.63
2022-08-12T16:51:41.776Z,101546.19
2022-08-12T16:54:47.950Z,101543.59
2022-08-12T16:57:52.025Z,101539.78
2022-08-12T17:01:02.139Z,101537.22
2022-08-12T17:04:08.396Z,101536.31
2022-08-12T17:07:16.964Z,101540.13
2022-08-12T17:10:36.490Z,101536.97
2022-08-12T17:13:53.147Z,101533.22
2022-08-12T17:16:58.376Z,101534.34
2022-08-12T17:20:35.543Z,101527.41
2022-08-12T17:23:48.071Z,101527.41
2022-08-12T17:26:53.873Z,101531.22
2022-08-12T17:30:00.944Z,101519.78
2022-08-12T17:33:06.822Z,101515.44
2022-08-12T17:36:10.477Z,101517.88
2022-08-12T17:39:13.853Z,101514.84
2022-08-12T17:42:32.784Z,101516.28
2022-08-12T17:45:42.222Z,101516.16
2022-08-12T17:48:55.182Z,101520.69
2022-08-12T17:52:02.397Z,101515.06
2022-08-12T17:55:40.454Z,101509.22
2022-08-12T17:58:35.641Z,101522.47
2022-08-12T18:01:45.376Z,101520.50
2022-08-12T18:05:04.823Z,101530.53
2022-08-12T18:08:11.205Z,101516.81
2022-08-12T18:12:03.054Z,101527.59
2022-08-12T18:15:00.371Z,101528.81
2022-08-12T18:18:04.093Z,101521.78
2022-08-12T18:21:08.575Z,101528.25
2022-08-12T18:24:22.124Z,101533.88
2022-08-12T18:27:30.812Z,101537.53
2022-08-12T18:30:52.943Z,101533.69
2022-08-12T18:34:00.902Z,101534.59
2022-08-12T18:37:26.924Z,101539.53
2022-08-12T18:40:46.179Z,101539.41
2022-08-12T18:43:59.553Z,101542.88
2022-08-12T18:47:10.486Z,101543.91
2022-08-12T18:50:16.274Z,101548.19
2022-08-12T18:53:31.013Z,101548.50
2022-08-12T18:56:45.265Z,101555.22
2022-08-12T19:00:00.784Z,101553.19
2022-08-12T19:03:16.628Z,101558.94
2022-08-12T19:06:38.306Z,101560.59
2022-08-12T19:09:57.733Z,101559.31
2022-08-12T19:13:24.182Z,101559.22
2022-08-12T19:16:28.392Z,101565.56
2022-08-12T19:19:38.858Z,101565.63
2022-08-12T19:22:57.715Z,101564.34
2022-08-12T19:26:03.030Z,101568.88
2022-08-12T19:29:07.593Z,101566.59
2022-08-12T19:32:13.799Z,101575.16
2022-08-12T19:36:06.508Z,101575.22
2022-08-12T19:38:56.301Z,101567.97
2022-08-12T19:42:02.605Z,101560.09
2022-08-12T19:45:12.411Z,101567.53
2022-08-12T19:48:20.627Z,101563.44
2022-08-12T19:51:33.521Z,101569.38
2022-08-12T19:54:38.747Z,101557.28
2022-08-12T19:58:01.590Z,101562.75
2022-08-12T20:01:10.830Z,101556.50
2022-08-12T20:04:14.423Z,101560.94
2022-08-12T20:07:23.804Z,101560.44
2022-08-12T20:10:35.521Z,101569.03
2022-08-12T20:13:42.166Z,101572.94
2022-08-12T20:16:51.141Z,101565.88
2022-08-12T20:20:17.042Z,101570.63
2022-08-12T20:23:37.197Z,101578.38
2022-08-12T20:26:54.588Z,101577.69
2022-08-12T20:29:59.531Z,101571.59
2022-08-12T20:33:03.201Z,101573.53
2022-08-12T20:36:40.281Z,101576.31
2022-08-12T20:39:53.275Z,101572.31
2022-08-12T20:42:56.616Z,101570.69
2022-08-12T20:45:59.440Z,101568.69
2022-08-12T20:49:14.815Z,101573.94
2022-08-12T20:52:20.176Z,101576.38
2022-08-12T20:55:43.044Z,101576.19
2022-08-12T20:58:46.983Z,101578.81
2022-08-12T21:01:54.228Z,101589.00
2022-08-12T21:05:19.483Z,101582.22
2022-08-12T21:08:26.736Z,101590.03
2022-08-12T21:11:32.459Z,101592.13
2022-08-12T21:14:39.700Z,101591.63
2022-08-12T21:18:11.593Z,101600.03
2022-08-12T21:21:46.996Z,101589.84
2022-08-12T21:24:47.294Z,101600.22
2022-08-12T21:27:59.242Z,101587.72
2022-08-12T21:32:34.592Z,101592.09
2022-08-12T21:34:29.587Z,101587.16
2022-08-12T21:37:37.200Z,101586.16
2022-08-12T21:40:52.062Z,101591.59
2022-08-12T21:44:01.552Z,101585.34
2022-08-12T21:47:12.113Z,101583.69
2022-08-12T21:50:29.126Z,101588.69
2022-08-12T21:54:06.726Z,101586.53
2022-08-12T21:56:55.053Z,101578.44
2022-08-12T21:59:59.132Z,101573.38
2022-08-12T22:04:01.661Z,101579.59
2022-08-12T22:07:07.843Z,101583.97
2022-08-12T22:10:12.562Z,101575.03
2022-08-12T22:14:07.659Z,101577.84
2022-08-12T22:16:46.758Z,101590.97
2022-08-12T22:19:49.983Z,101589.13
2022-08-12T22:22:55.949Z,101590.28
2022-08-12T22:25:59.680Z,101590.75
2022-08-12T22:29:20.178Z,101595.09
2022-08-12T22:32:26.408Z,101600.31
2022-08-12T22:35:56.682Z,101598.25
2022-08-12T22:38:59.884Z,101599.31
2022-08-12T22:42:20.489Z,101604.25
2022-08-12T22:45:48.184Z,101603.41
2022-08-12T22:48:53.708Z,101599.88
2022-08-12T22:52:00.819Z,101604.41
2022-08-12T22:55:07.089Z,101599.47
2022-08-12T22:58:12.555Z,101597.16
2022-08-12T23:01:21.272Z,101604.16
2022-08-12T23:04:40.703Z,101592.19
2022-08-12T23:07:58.720Z,101593.25
2022-08-12T23:11:04.733Z,101595.44
2022-08-12T23:14:08.919Z,101591.84
2022-08-12T23:17:21.146Z,101595.81
2022-08-12T23:20:37.243Z,101598.34
2022-08-12T23:24:09.127Z,101597.50
2022-08-12T23:27:21.845Z,101596.56
2022-08-12T23:30:32.272Z,101601.88
2022-08-12T23:34:02.458Z,101591.34
2022-08-12T23:37:02.051Z,101598.91
2022-08-12T23:40:15.583Z,101595.69
2022-08-12T23:43:20.902Z,101605.00
2022-08-12T23:46:27.461Z,101595.06
2022-08-12T23:49:57.735Z,101594.34
2022-08-12T23:52:56.164Z,101591.88
2022-08-12T23:55:59.538Z,101596.97
2022-08-12T23:59:03.248Z,101591.88
